Station PTOA1 - 8737005 - Pinto Island, AL Image indicating link to RSS feed of recent meteorological observations for station PTOA1


Conditions at PTOA1 as of
(5:00 am CDT)
1000 GMT on 04/21/2024:
     

Click on the graph icon in the table below to see a time series plot of the last five days of that observation.

5-day plot - Air Temperature Air Temperature (ATMP): 61.3 °F
5-day plot - Dew Point Dew Point (DEWP): 57.9 °F
5-day plot - Visibility Visibility (VIS): 5.9 nmi
NOS Water Level Observation Network Water Level
Previous observations
TIME
(CDT)
5-day plot - Wind Direction
WDIR
 
5-day plot - Wind Speed
WSPD
kts
5-day plot - Wind Gust
GST
kts
5-day plot - Wave Height
WVHT
ft
5-day plot - Dominant Wave Period
DPD
sec
5-day plot - Average Wave Period
APD
sec
5-day plot - Mean Wave Direction
MWD
 
5-day plot - Atmospheric Pressure
PRES
in
5-day plot - Pressure Tendency
PTDY
in
5-day plot - Air Temperature
ATMP
°F
5-day plot - Water Temperature
WTMP
°F
5-day plot - Dew Point
DEWP
°F
5-day plot - Salinity
SAL
psu
5-day plot - Visibility
VIS
nmi
5-day plot - Tide (above MLLW)
TIDE
ft
2024-04-21 04:54 am--------- 61.3- 57.9- 5.9-
2024-04-21 04:48 am--------- 61.9- 58.6- 5.9-
2024-04-21 04:42 am--------- 61.9- 58.6- 5.9-
2024-04-21 04:36 am--------- 61.9- 58.8- 5.9-
2024-04-21 04:30 am--------- 62.1- 59.0- 5.9-
2024-04-21 04:24 am--------- 62.6- 59.4- 5.9-
2024-04-21 04:18 am--------- 62.8- 59.5- 5.9-
2024-04-21 04:12 am--------- 63.1- 59.9- 5.9-
2024-04-21 04:06 am--------- 63.3- 59.9- 5.9-
2024-04-21 04:00 am--------- 63.9- 60.4- 5.9-
2024-04-21 03:54 am--------- 63.9- 60.4- 5.9-
2024-04-21 03:48 am--------- 64.0- 60.6- 5.9-
2024-04-21 03:42 am--------- 63.7- 60.4- 5.9-
2024-04-21 03:36 am--------- 63.3- 60.1- 5.9-
2024-04-21 03:30 am--------- 63.3- 59.9- 5.9-
2024-04-21 03:24 am--------- 63.5- 60.1- 5.9-
2024-04-21 03:00 am--------- 63.7- 60.4- 5.9-
2024-04-21 02:54 am--------- 63.9- 60.8- 5.9-
2024-04-21 02:48 am--------- 63.7- 60.6- 5.9-
2024-04-21 02:42 am--------- 63.7- 60.6- 5.9-
2024-04-21 02:36 am--------- 63.5- 60.6- 5.9-
2024-04-21 02:30 am--------- 63.3- 60.4- 5.9-
2024-04-21 02:24 am--------- 63.5- 60.6- 5.9-
2024-04-21 02:18 am--------- 63.3- 60.6- 5.9-
2024-04-21 02:12 am--------- 63.3- 60.4- 5.9-
2024-04-21 02:06 am--------- 63.1- 60.4- 5.9-
2024-04-21 02:00 am--------- 63.0- 60.1- 5.9-
2024-04-21 01:54 am--------- 63.0- 60.1- 5.9-
2024-04-21 01:48 am--------- 63.1- 60.1- 5.9-
2024-04-21 01:42 am--------- 63.3- 60.3- 5.9-
2024-04-21 01:36 am--------- 63.3- 60.3- 5.9-
2024-04-21 01:30 am--------- 63.5- 60.4- 5.9-
2024-04-21 01:24 am--------- 63.3- 60.1- 5.9-
2024-04-21 01:18 am--------- 63.3- 60.1- 5.9-
2024-04-21 01:12 am--------- 63.3- 60.1- 5.9-
2024-04-21 01:06 am--------- 63.3- 60.1- 5.9-
2024-04-21 01:00 am--------- 63.5- 59.9- 5.9-
2024-04-21 12:54 am--------- 63.5- 60.1- 5.9-
2024-04-21 12:48 am--------- 63.7- 60.1- 5.9-
2024-04-21 12:42 am--------- 63.9- 60.3- 5.9-
2024-04-21 12:36 am--------- 64.0- 60.3- 5.9-
2024-04-21 12:30 am--------- 63.7- 59.9- 5.9-
2024-04-21 12:24 am--------- 63.7- 59.7- 5.9-
2024-04-21 12:18 am--------- 63.9- 59.9- 5.9-
2024-04-21 12:12 am--------- 63.9- 59.9- 5.9-
2024-04-21 12:06 am--------- 63.9- 59.9- 5.9-
2024-04-21 12:00 am--------- 63.9- 59.9- 5.9-
2024-04-20 11:54 pm--------- 63.9- 59.9- 5.9-
2024-04-20 11:48 pm--------- 64.0- 59.9- 5.9-
2024-04-20 11:42 pm--------- 64.2- 60.3- 5.9-
2024-04-20 11:36 pm--------- 64.2- 60.4- 5.9-
2024-04-20 11:30 pm--------- 64.2- 60.4- 5.9-
2024-04-20 11:24 pm--------- 64.2- 60.3- 5.9-
2024-04-20 11:18 pm--------- 64.6- 60.3- 5.9-
2024-04-20 11:12 pm--------- 64.9- 60.4- 5.9-
2024-04-20 11:06 pm--------- 65.1- 60.4- 5.9-
2024-04-20 11:00 pm--------- 65.3- 60.4- 5.9-
2024-04-20 10:54 pm--------- 65.7- 60.6- 5.9-
2024-04-20 10:48 pm--------- 66.0- 60.8- 5.9-
2024-04-20 10:42 pm--------- 66.0- 60.6- 5.9-
2024-04-20 10:36 pm--------- 66.4- 60.8- 5.9-
2024-04-20 10:30 pm--------- 66.6- 60.6- 5.9-
2024-04-20 10:24 pm--------- 66.9- 61.0- 5.9-
2024-04-20 10:18 pm--------- 67.8- 62.2- 5.9-
2024-04-20 10:12 pm--------- 68.5- 63.9- 5.9-
2024-04-20 10:06 pm--------- 69.6- 64.2- 5.9-
2024-04-20 10:00 pm--------- 74.1- 68.5- 5.9-
2024-04-20 09:54 pm--------- 74.3- 68.5- 5.9-
2024-04-20 09:48 pm--------- 74.5- 68.5- 5.9-
2024-04-20 09:42 pm--------- 74.7- 68.5- 5.9-
2024-04-20 09:36 pm--------- 74.7- 68.5- 5.9-
2024-04-20 09:30 pm--------- 74.7- 68.5- 5.9-
2024-04-20 09:24 pm--------- 74.8- 68.4- 5.9-
2024-04-20 09:18 pm--------- 74.8- 68.5- 5.9-
2024-04-20 09:12 pm--------- 75.0- 68.7- 5.9-
2024-04-20 09:06 pm--------- 74.7- 68.5- 5.9-
2024-04-20 09:00 pm--------- 74.8- 68.7- 5.9-
2024-04-20 08:54 pm--------- 74.8- 68.9- 5.9-
2024-04-20 08:48 pm--------- 74.8- 68.9- 5.9-
2024-04-20 08:42 pm--------- 75.2- 69.1- 5.9-
2024-04-20 08:36 pm--------- 75.2- 69.1- 5.9-
2024-04-20 08:30 pm--------- 75.4- 69.1- 5.9-
2024-04-20 08:24 pm--------- 75.4- 69.1- 5.9-
2024-04-20 08:18 pm--------- 75.4- 69.1- 5.9-
2024-04-20 08:12 pm--------- 75.6- 69.1- 5.9-
2024-04-20 08:06 pm--------- 75.6- 68.9- 5.9-
2024-04-20 08:00 pm--------- 75.6- 68.9- 5.9-
2024-04-20 07:54 pm--------- 75.6- 68.9- 5.9-
2024-04-20 07:48 pm--------- 75.7- 68.9- 5.9-
2024-04-20 07:42 pm--------- 75.7- 68.7- 5.9-
2024-04-20 07:36 pm--------- 75.9- 68.7- 5.9-
2024-04-20 07:30 pm--------- 75.9- 68.7- 5.9-
2024-04-20 07:24 pm--------- 76.1- 68.9- 5.9-
2024-04-20 07:18 pm--------- 76.3- 68.9- 5.9-
2024-04-20 07:12 pm--------- 76.3- 68.9- 5.9-
2024-04-20 07:06 pm--------- 76.5- 68.7- 5.9-
2024-04-20 07:00 pm--------- 76.8--- 5.9-
2024-04-20 06:54 pm--------- 76.3--- 5.9-
2024-04-20 06:30 pm--------- 76.8- 70.0- 5.9-
2024-04-20 06:24 pm--------- 77.0- 70.0- 5.9-
2024-04-20 06:00 pm--------- 77.2--- 5.9-
2024-04-20 05:54 pm--------- 77.9--- 5.9-
2024-04-20 05:48 pm--------- 78.3- 69.8- 5.9-
2024-04-20 05:42 pm--------- 77.7- 70.0- 5.9-
2024-04-20 05:36 pm--------- 77.7- 70.0- 5.9-
2024-04-20 05:30 pm--------- 78.4- 70.3- 5.9-
2024-04-20 05:24 pm--------- 77.7- 70.2- 5.9-
2024-04-20 05:18 pm--------- 77.7- 70.0- 5.9-
2024-04-20 05:12 pm--------- 78.1- 70.2- 5.9-
2024-04-20 05:06 pm--------- 78.4- 70.2- 5.9-
2024-04-20 05:00 pm--------- 78.6- 69.6- 5.9-
2024-04-20 04:54 pm--------- 79.5- 70.0- 5.9-
2024-04-20 04:48 pm--------- 79.7- 70.3- 5.9-
2024-04-20 04:42 pm--------- 79.7- 71.2- 5.9-
2024-04-20 04:36 pm--------- 79.7- 71.4- 5.9-
2024-04-20 04:30 pm--------- 79.9- 71.1- 5.9-
2024-04-20 04:24 pm--------- 79.2- 71.2- 5.9-
2024-04-20 04:18 pm--------- 79.2- 71.2- 5.9-
2024-04-20 04:12 pm--------- 80.1- 71.6- 5.9-
2024-04-20 04:06 pm--------- 80.1- 71.6- 5.9-
2024-04-20 04:00 pm--------- 80.1- 71.8- 5.9-
2024-04-20 03:54 pm--------- 79.3- 71.8- 5.9-
2024-04-20 03:30 pm--------- 79.9- 71.8- 5.9-
2024-04-20 03:24 pm--------- 79.9- 71.6- 5.9-
2024-04-20 03:18 pm--------- 80.2- 72.1- 5.9-
2024-04-20 03:12 pm--------- 80.1- 72.1- 5.9-
2024-04-20 03:06 pm--------- 80.2- 72.1- 5.9-
2024-04-20 03:00 pm--------- 80.4- 72.1- 5.9-
2024-04-20 02:54 pm--------- 80.1- 72.5- 5.9-
2024-04-20 02:48 pm--------- 80.2- 72.1- 5.9-
2024-04-20 02:42 pm--------- 80.4- 72.1- 5.9-
2024-04-20 02:36 pm--------- 80.8- 72.0- 5.9-
2024-04-20 02:30 pm--------- 81.0- 72.0- 5.9-
2024-04-20 02:24 pm--------- 80.8- 72.0- 5.9-
2024-04-20 02:18 pm--------- 80.4- 71.6- 5.9-
2024-04-20 02:12 pm--------- 80.2- 72.5- 5.9-
2024-04-20 02:06 pm--------- 80.6- 73.0- 5.9-
2024-04-20 01:48 pm--------- 80.1- 72.3- 5.9-
2024-04-20 01:42 pm--------- 80.1- 72.5- 5.9-
2024-04-20 01:36 pm--------- 80.2- 72.7- 5.9-
2024-04-20 01:30 pm--------- 80.2- 72.7- 5.9-
2024-04-20 01:24 pm--------- 80.6- 72.9- 5.9-
2024-04-20 01:18 pm--------- 80.4- 72.9- 5.9-
2024-04-20 01:12 pm--------- 80.8- 72.1- 5.9-
2024-04-20 01:06 pm--------- 81.5- 72.1- 5.9-
2024-04-20 01:00 pm--------- 80.6- 72.3- 5.9-
2024-04-20 12:54 pm--------- 81.1- 72.5- 5.9-
2024-04-20 12:48 pm--------- 80.8- 72.1- 5.9-
2024-04-20 12:42 pm--------- 80.1- 72.5- 5.9-
2024-04-20 12:36 pm--------- 79.5- 72.5- 5.9-
2024-04-20 12:30 pm--------- 80.1- 72.7- 5.9-
2024-04-20 12:24 pm--------- 80.1- 72.7- 5.9-
2024-04-20 12:18 pm--------- 79.5- 72.9- 5.9-
2024-04-20 12:12 pm--------- 79.3- 72.9- 5.9-
2024-04-20 12:06 pm--------- 79.0- 72.5- 5.9-
2024-04-20 12:00 pm--------- 78.6- 72.5- 5.9-
2024-04-20 11:54 am--------- 79.0- 72.5- 5.9-
2024-04-20 11:48 am--------- 79.0- 72.5- 5.9-
2024-04-20 11:42 am--------- 79.3- 72.7- 5.9-
2024-04-20 11:36 am--------- 79.3- 72.7- 5.9-
2024-04-20 11:30 am--------- 79.2- 72.5- 5.9-
2024-04-20 11:24 am--------- 79.7- 72.7- 5.9-
2024-04-20 11:18 am--------- 79.7- 72.1- 5.9-
2024-04-20 11:12 am--------- 80.6- 72.1- 5.9-
2024-04-20 11:06 am--------- 79.5- 72.1- 5.9-
2024-04-20 11:00 am--------- 79.2- 72.0- 5.9-
2024-04-20 10:54 am--------- 79.5- 72.9- 5.9-
2024-04-20 10:48 am--------- 79.3- 72.1- 5.9-
2024-04-20 10:42 am--------- 78.3- 72.0- 5.9-
2024-04-20 10:36 am--------- 78.4- 72.1- 5.9-
2024-04-20 10:30 am--------- 78.4- 71.6- 5.9-
2024-04-20 10:24 am--------- 78.4- 71.1- 5.9-
2024-04-20 10:18 am--------- 77.9- 70.3- 5.9-
2024-04-20 10:12 am--------- 78.3- 69.4- 5.9-
2024-04-20 10:06 am--------- 78.6- 70.2- 5.9-
2024-04-20 10:00 am--------- 78.3- 70.2- 5.9-
2024-04-20 09:54 am--------- 77.9- 70.5- 5.9-
2024-04-20 09:48 am--------- 77.7- 71.1- 5.9-
2024-04-20 09:42 am--------- 77.4- 70.9- 5.9-
2024-04-20 09:36 am--------- 77.7- 71.1- 5.9-
2024-04-20 09:30 am--------- 77.9- 71.2- 5.9-
2024-04-20 09:24 am--------- 77.7- 71.4- 5.9-
2024-04-20 09:18 am--------- 77.2- 71.4- 5.9-
2024-04-20 09:12 am--------- 76.6- 71.2- 5.9-
2024-04-20 09:06 am--------- 76.1- 71.1- 5.9-
2024-04-20 09:00 am--------- 75.7- 71.2- 5.9-
2024-04-20 08:54 am--------- 75.6- 71.2- 5.9-
2024-04-20 08:30 am--------- 75.7- 72.0- 5.9-
2024-04-20 08:24 am--------- 75.4- 71.8- 5.9-
2024-04-20 08:18 am--------- 75.0- 72.0- 5.9-
2024-04-20 08:12 am--------- 74.3- 71.6- 5.9-
2024-04-20 08:06 am--------- 74.1- 71.6- 5.9-
2024-04-20 08:00 am--------- 73.9- 71.6- 5.9-
2024-04-20 07:54 am--------- 73.9- 71.6- 5.9-
2024-04-20 07:48 am--------- 73.6- 71.2- 5.9-
2024-04-20 07:42 am--------- 73.4- 71.2- 5.9-
2024-04-20 07:36 am--------- 73.4- 71.2- 5.9-
2024-04-20 07:30 am--------- 73.2- 71.1- 5.9-
2024-04-20 07:24 am--------- 73.0- 71.1- 5.9-
2024-04-20 07:18 am--------- 73.0- 71.1- 5.9-
2024-04-20 07:12 am--------- 73.0- 71.1- 5.9-
2024-04-20 07:06 am--------- 72.9- 70.9- 5.9-
2024-04-20 07:00 am--------- 72.7- 70.7- 5.9-
2024-04-20 06:54 am--------- 72.7- 70.9- 5.9-
2024-04-20 06:48 am--------- 72.5- 70.7- 5.9-
2024-04-20 06:42 am--------- 72.5- 70.7- 5.9-
2024-04-20 06:36 am--------- 72.3- 70.5- 5.9-
2024-04-20 06:30 am--------- 72.1- 70.5- 5.9-
2024-04-20 06:24 am--------- 72.0- 70.3- 5.9-
2024-04-20 06:18 am--------- 72.0- 70.3- 5.9-
2024-04-20 06:12 am--------- 72.0- 70.3- 5.9-
2024-04-20 06:06 am--------- 72.0- 70.3- 5.9-
2024-04-20 06:00 am--------- 72.0- 70.3- 5.9-
2024-04-20 05:54 am--------- 72.0- 70.2- 5.9-
2024-04-20 05:48 am--------- 72.1- 70.2- 5.9-
2024-04-20 05:42 am--------- 72.5- 70.3- 5.9-
2024-04-20 05:36 am--------- 72.7- 70.5- 5.9-
2024-04-20 05:18 am--------- 72.5- 70.5- 5.9-
2024-04-20 05:12 am--------- 72.5- 70.5- 5.9-
2024-04-20 05:06 am--------- 72.5- 70.5- 5.9-